AVA9815 SKBO-SKPE
Flight info
| Callsign | AVA9815 |
|---|---|
| Flight time | N/A |
| Altitude | 20000 |
| Route | ISNOX2S ISNOX ISNOX1D |
| Aircraft | A320/M-SDE3FGHIRWY/LB1 |
Departure
| Time | 2026-05-04 02:58 |
|---|---|
| Airport | El Dorado International Airport (SKBO) |
Arrival
| Time | N/A |
|---|---|
| Airport | Matecaña International Airport (SKPE) |
| Time | Latitude | Longitude | Altitude | Speed | Heading |
|---|---|---|---|---|---|
| 2026-05-04 02:37 | 4.69669 | -74.14558 | 8366 ft | 0 kts | 216° |
| 2026-05-04 02:44 | 4.69675 | -74.14554 | 8366 ft | 3 kts | 216° |
| 2026-05-04 02:45 | 4.69692 | -74.14541 | 8367 ft | 3 kts | 217° |
| 2026-05-04 02:45 | 4.69704 | -74.14533 | 8366 ft | 1 kts | 242° |
| 2026-05-04 02:45 | 4.69707 | -74.14525 | 8367 ft | 1 kts | 299° |
| 2026-05-04 02:45 | 4.69703 | -74.14517 | 8367 ft | 1 kts | 305° |
| 2026-05-04 02:46 | 4.69698 | -74.14511 | 8366 ft | 1 kts | 307° |
| 2026-05-04 02:46 | 4.69693 | -74.14504 | 8367 ft | 1 kts | 307° |
| 2026-05-04 02:49 | 4.69712 | -74.14529 | 8366 ft | 8 kts | 307° |
| 2026-05-04 02:49 | 4.69750 | -74.14579 | 8366 ft | 9 kts | 307° |
| 2026-05-04 02:49 | 4.69787 | -74.14628 | 8366 ft | 8 kts | 307° |
| 2026-05-04 02:50 | 4.69819 | -74.14670 | 8366 ft | 7 kts | 308° |
| 2026-05-04 02:50 | 4.69852 | -74.14714 | 8366 ft | 10 kts | 304° |
| 2026-05-04 02:50 | 4.69897 | -74.14780 | 8366 ft | 12 kts | 307° |
| 2026-05-04 02:50 | 4.69938 | -74.14850 | 8366 ft | 11 kts | 274° |
| 2026-05-04 02:51 | 4.69892 | -74.14906 | 8366 ft | 10 kts | 217° |
| 2026-05-04 02:51 | 4.69856 | -74.14934 | 8366 ft | 9 kts | 227° |
| 2026-05-04 02:51 | 4.69862 | -74.14987 | 8366 ft | 7 kts | 307° |
| 2026-05-04 02:51 | 4.69901 | -74.15037 | 8366 ft | 12 kts | 307° |
| 2026-05-04 02:52 | 4.69954 | -74.15108 | 8366 ft | 14 kts | 307° |
| 2026-05-04 02:52 | 4.70018 | -74.15192 | 8366 ft | 16 kts | 307° |
| 2026-05-04 02:52 | 4.70089 | -74.15286 | 8366 ft | 18 kts | 307° |
| 2026-05-04 02:52 | 4.70165 | -74.15386 | 8366 ft | 18 kts | 307° |
| 2026-05-04 02:53 | 4.70235 | -74.15479 | 8365 ft | 16 kts | 307° |
| 2026-05-04 02:53 | 4.70304 | -74.15570 | 8365 ft | 17 kts | 307° |
| 2026-05-04 02:53 | 4.70375 | -74.15664 | 8365 ft | 17 kts | 308° |
| 2026-05-04 02:53 | 4.70448 | -74.15760 | 8365 ft | 18 kts | 307° |
| 2026-05-04 02:54 | 4.70521 | -74.15857 | 8366 ft | 18 kts | 307° |
| 2026-05-04 02:54 | 4.70596 | -74.15955 | 8366 ft | 18 kts | 307° |
| 2026-05-04 02:54 | 4.70672 | -74.16056 | 8366 ft | 18 kts | 307° |
| 2026-05-04 02:54 | 4.70749 | -74.16158 | 8366 ft | 19 kts | 307° |
| 2026-05-04 02:55 | 4.70903 | -74.16362 | 8366 ft | 18 kts | 307° |
| 2026-05-04 02:55 | 4.70980 | -74.16463 | 8366 ft | 19 kts | 307° |
| 2026-05-04 02:55 | 4.71056 | -74.16562 | 8366 ft | 18 kts | 307° |
| 2026-05-04 02:56 | 4.71130 | -74.16660 | 8366 ft | 16 kts | 307° |
| 2026-05-04 02:56 | 4.71194 | -74.16745 | 8366 ft | 14 kts | 306° |
| 2026-05-04 02:56 | 4.71167 | -74.16820 | 8365 ft | 12 kts | 216° |
| 2026-05-04 02:56 | 4.71094 | -74.16874 | 8363 ft | 14 kts | 216° |
| 2026-05-04 02:57 | 4.71008 | -74.16861 | 8363 ft | 13 kts | 133° |
| 2026-05-04 02:57 | 4.71000 | -74.16850 | 8363 ft | 0 kts | 126° |
| 2026-05-04 02:57 | 4.70987 | -74.16832 | 8363 ft | 17 kts | 127° |
| 2026-05-04 02:57 | 4.70762 | -74.16533 | 8365 ft | 88 kts | 126° |
| 2026-05-04 02:58 | 4.70264 | -74.15875 | 8363 ft | 146 kts | 127° |
| 2026-05-04 02:58 | 4.69553 | -74.14936 | 8368 ft | 192 kts | 126° |
| 2026-05-04 02:58 | 4.68724 | -74.13846 | 9018 ft | 196 kts | 129° |
| 2026-05-04 02:58 | 4.67611 | -74.13099 | 9809 ft | 198 kts | 169° |
| 2026-05-04 02:59 | 4.66238 | -74.13323 | 10289 ft | 215 kts | 210° |
| 2026-05-04 02:59 | 4.65116 | -74.14423 | 10451 ft | 238 kts | 233° |
| 2026-05-04 02:59 | 4.64204 | -74.15868 | 10785 ft | 251 kts | 239° |
| 2026-05-04 02:59 | 4.63351 | -74.17408 | 11406 ft | 254 kts | 240° |
| 2026-05-04 03:00 | 4.62490 | -74.18966 | 12051 ft | 257 kts | 238° |
| 2026-05-04 03:00 | 4.61634 | -74.20553 | 12669 ft | 262 kts | 248° |
| 2026-05-04 03:00 | 4.61187 | -74.22378 | 12980 ft | 282 kts | 258° |
| 2026-05-04 03:00 | 4.60821 | -74.24394 | 13154 ft | 305 kts | 258° |
| 2026-05-04 03:01 | 4.60411 | -74.26570 | 13298 ft | 329 kts | 256° |
| 2026-05-04 03:01 | 4.59551 | -74.28753 | 13420 ft | 348 kts | 239° |
| 2026-05-04 03:01 | 4.58364 | -74.30955 | 13530 ft | 370 kts | 240° |
| 2026-05-04 03:01 | 4.57151 | -74.33307 | 13654 ft | 389 kts | 242° |
| 2026-05-04 03:02 | 4.55914 | -74.35761 | 14016 ft | 398 kts | 242° |
| 2026-05-04 03:02 | 4.54662 | -74.38261 | 14483 ft | 403 kts | 242° |
| 2026-05-04 03:02 | 4.53396 | -74.40780 | 14947 ft | 407 kts | 242° |
| 2026-05-04 03:02 | 4.52106 | -74.43331 | 15398 ft | 412 kts | 242° |
| 2026-05-04 03:03 | 4.50800 | -74.45893 | 15862 ft | 415 kts | 241° |
| 2026-05-04 03:03 | 4.49475 | -74.48484 | 16326 ft | 419 kts | 241° |
| 2026-05-04 03:03 | 4.48138 | -74.51089 | 16767 ft | 423 kts | 241° |
| 2026-05-04 03:03 | 4.46788 | -74.53720 | 17216 ft | 427 kts | 241° |
| 2026-05-04 03:04 | 4.45423 | -74.56378 | 17653 ft | 431 kts | 241° |
| 2026-05-04 03:04 | 4.44044 | -74.59059 | 18054 ft | 434 kts | 241° |
| 2026-05-04 03:04 | 4.42662 | -74.61756 | 18164 ft | 438 kts | 241° |
| 2026-05-04 03:04 | 4.41232 | -74.64556 | 18180 ft | 452 kts | 241° |
| 2026-05-04 03:05 | 4.39795 | -74.67359 | 18170 ft | 465 kts | 241° |
| 2026-05-04 03:05 | 4.38286 | -74.70296 | 18164 ft | 470 kts | 241° |
| 2026-05-04 03:05 | 4.36783 | -74.73214 | 18153 ft | 471 kts | 241° |
| 2026-05-04 03:05 | 4.35278 | -74.76126 | 18148 ft | 471 kts | 241° |
| 2026-05-04 03:06 | 4.33793 | -74.79055 | 18141 ft | 472 kts | 244° |
| 2026-05-04 03:06 | 4.32676 | -74.82152 | 18125 ft | 473 kts | 255° |
| 2026-05-04 03:06 | 4.32116 | -74.85394 | 18113 ft | 474 kts | 264° |
| 2026-05-04 03:06 | 4.32126 | -74.88692 | 18104 ft | 474 kts | 275° |
| 2026-05-04 03:07 | 4.32680 | -74.91941 | 18094 ft | 474 kts | 283° |
| 2026-05-04 03:07 | 4.33416 | -74.95160 | 18076 ft | 474 kts | 283° |
| 2026-05-04 03:07 | 4.34145 | -74.98342 | 18070 ft | 473 kts | 283° |
| 2026-05-04 03:07 | 4.34905 | -75.01651 | 18032 ft | 473 kts | 283° |
| 2026-05-04 03:08 | 4.35641 | -75.04861 | 18021 ft | 473 kts | 283° |
| 2026-05-04 03:08 | 4.36378 | -75.08076 | 18018 ft | 473 kts | 283° |
| 2026-05-04 03:08 | 4.37114 | -75.11290 | 18049 ft | 473 kts | 283° |
| 2026-05-04 03:08 | 4.37849 | -75.14498 | 18055 ft | 473 kts | 283° |
| 2026-05-04 03:09 | 4.38585 | -75.17714 | 18054 ft | 473 kts | 283° |
| 2026-05-04 03:09 | 4.39323 | -75.20924 | 18058 ft | 473 kts | 283° |
| 2026-05-04 03:09 | 4.40062 | -75.24136 | 18073 ft | 474 kts | 283° |
| 2026-05-04 03:09 | 4.40801 | -75.27350 | 18090 ft | 473 kts | 284° |
| 2026-05-04 03:10 | 4.41537 | -75.30564 | 18112 ft | 473 kts | 283° |
| 2026-05-04 03:10 | 4.42272 | -75.33784 | 18133 ft | 473 kts | 283° |
| 2026-05-04 03:10 | 4.43006 | -75.36996 | 18159 ft | 473 kts | 283° |
| 2026-05-04 03:10 | 4.43742 | -75.40212 | 18182 ft | 474 kts | 283° |
| 2026-05-04 03:11 | 4.44479 | -75.43431 | 18209 ft | 474 kts | 283° |
| 2026-05-04 03:11 | 4.45215 | -75.46651 | 18219 ft | 474 kts | 283° |
| 2026-05-04 03:11 | 4.45961 | -75.49912 | 18198 ft | 473 kts | 283° |
| 2026-05-04 03:11 | 4.46746 | -75.53111 | 18177 ft | 473 kts | 288° |
| 2026-05-04 03:12 | 4.47924 | -75.56184 | 18162 ft | 472 kts | 296° |
| 2026-05-04 03:12 | 4.49539 | -75.59040 | 18153 ft | 470 kts | 306° |
| 2026-05-04 03:12 | 4.51565 | -75.61593 | 18145 ft | 467 kts | 315° |
| 2026-05-04 03:12 | 4.53931 | -75.63752 | 18136 ft | 464 kts | 324° |
| 2026-05-04 03:13 | 4.56638 | -75.65409 | 18132 ft | 447 kts | 340° |
| 2026-05-04 03:13 | 4.59590 | -75.66101 | 17601 ft | 431 kts | 1° |
| 2026-05-04 03:13 | 4.62487 | -75.65746 | 17316 ft | 413 kts | 14° |
| 2026-05-04 03:13 | 4.65240 | -75.65215 | 16992 ft | 391 kts | 13° |
| 2026-05-04 03:14 | 4.67843 | -75.64734 | 16668 ft | 370 kts | 11° |
| 2026-05-04 03:14 | 4.70346 | -75.64773 | 16349 ft | 356 kts | 347° |
| 2026-05-04 03:14 | 4.72515 | -75.65863 | 15933 ft | 349 kts | 320° |
| 2026-05-04 03:14 | 4.73931 | -75.67785 | 15493 ft | 342 kts | 291° |